createdAt,value
2022-11-28T00:01:39.500Z,101856.28
2022-11-28T00:04:06.693Z,101865.63
2022-11-28T00:06:37.594Z,101839.53
2022-11-28T00:09:05.108Z,101858.59
2022-11-28T00:11:32.202Z,101859.31
2022-11-28T00:13:59.208Z,101854.81
2022-11-28T00:16:26.351Z,101853.28
2022-11-28T00:18:54.827Z,101862.59
2022-11-28T00:21:23.082Z,101857.81
2022-11-28T00:23:50.291Z,101847.44
2022-11-28T00:26:26.848Z,101843.41
2022-11-28T00:28:55.934Z,101837.31
2022-11-28T00:31:25.287Z,101847.28
2022-11-28T00:33:52.900Z,101837.44
2022-11-28T00:36:20.789Z,101841.50
2022-11-28T00:38:48.739Z,101835.13
2022-11-28T00:41:28.798Z,101840.03
2022-11-28T00:43:56.206Z,101851.78
2022-11-28T00:46:24.017Z,101829.44
2022-11-28T00:48:51.517Z,101839.88
2022-11-28T00:51:19.708Z,101847.16
2022-11-28T00:53:49.109Z,101854.88
2022-11-28T00:56:18.606Z,101841.66
2022-11-28T00:58:45.960Z,101832.88
2022-11-28T01:01:26.285Z,101844.31
2022-11-28T01:03:55.337Z,101844.31
2022-11-28T01:06:31.139Z,101845.81
2022-11-28T01:09:04.984Z,101836.09
2022-11-28T01:11:32.137Z,101840.03
2022-11-28T01:14:01.502Z,101846.09
2022-11-28T01:16:29.209Z,101846.41
2022-11-28T01:18:56.518Z,101833.84
2022-11-28T01:21:24.057Z,101855.09
2022-11-28T01:23:51.367Z,101849.03
2022-11-28T01:26:40.259Z,101862.53
2022-11-28T01:29:08.419Z,101836.19
2022-11-28T01:31:35.950Z,101858.06
2022-11-28T01:34:03.078Z,101862.72
2022-11-28T01:36:30.527Z,101861.03
2022-11-28T01:38:58.054Z,101875.59
2022-11-28T01:41:27.170Z,101865.06
2022-11-28T01:44:13.827Z,101855.06
2022-11-28T01:46:41.270Z,101848.16
2022-11-28T01:49:38.043Z,101860.44
2022-11-28T01:52:12.170Z,101862.97
2022-11-28T01:54:42.059Z,101853.31
2022-11-28T01:57:13.702Z,101868.28
2022-11-28T01:59:46.937Z,101861.06
2022-11-28T02:02:23.202Z,101858.81
2022-11-28T02:04:52.350Z,101869.22
2022-11-28T02:07:20.260Z,101845.28
2022-11-28T02:09:47.295Z,101884.28
2022-11-28T02:12:29.184Z,101871.44
2022-11-28T02:15:37.342Z,101875.88
2022-11-28T02:18:26.030Z,101873.97
2022-11-28T02:21:24.992Z,101874.09
2022-11-28T02:24:21.161Z,101851.31
2022-11-28T02:27:23.243Z,101881.50
2022-11-28T02:30:04.787Z,101898.63
2022-11-28T02:32:31.729Z,101884.72
2022-11-28T02:35:20.917Z,101896.38
2022-11-28T02:38:11.083Z,101893.75
2022-11-28T02:40:53.258Z,101896.44
2022-11-28T02:43:32.659Z,101909.38
2022-11-28T02:45:59.572Z,101894.75
2022-11-28T02:48:51.586Z,101893.69
2022-11-28T02:51:32.087Z,101907.47
2022-11-28T02:54:02.251Z,101909.41
2022-11-28T02:56:29.405Z,101901.63
2022-11-28T02:58:56.486Z,101910.38
2022-11-28T03:01:29.769Z,101906.03
2022-11-28T03:04:02.683Z,101894.13
2022-11-28T03:06:40.457Z,101908.31
2022-11-28T03:09:25.636Z,101913.16
2022-11-28T03:12:37.262Z,101896.72
2022-11-28T03:15:07.604Z,101914.16
2022-11-28T03:18:06.793Z,101906.16
2022-11-28T03:20:51.675Z,101904.59
2022-11-28T03:23:26.736Z,101914.16
2022-11-28T03:26:14.120Z,101916.06
2022-11-28T03:29:22.445Z,101923.78
2022-11-28T03:31:58.491Z,101915.94
2022-11-28T03:34:34.698Z,101913.63
2022-11-28T03:37:11.544Z,101913.38
2022-11-28T03:39:46.825Z,101918.53
2022-11-28T03:42:21.151Z,101934.00
2022-11-28T03:44:54.394Z,101923.91
2022-11-28T03:47:25.397Z,101931.41
2022-11-28T03:49:54.572Z,101932.16
2022-11-28T03:52:32.763Z,101932.28
2022-11-28T03:55:17.572Z,101930.97
2022-11-28T03:57:48.979Z,101926.19
2022-11-28T04:00:17.328Z,101935.22
2022-11-28T04:02:57.515Z,101933.28
2022-11-28T04:05:39.921Z,101938.22
2022-11-28T04:08:29.446Z,101939.84
2022-11-28T04:11:07.428Z,101931.63
2022-11-28T04:13:56.079Z,101936.47
2022-11-28T04:16:38.190Z,101937.34
2022-11-28T04:19:12.913Z,101937.47
2022-11-28T04:21:54.647Z,101937.41
2022-11-28T04:24:27.028Z,101949.25
2022-11-28T04:27:04.340Z,101928.88
2022-11-28T04:29:37.264Z,101951.34
2022-11-28T04:32:06.473Z,101951.16
2022-11-28T04:34:37.466Z,101936.50
2022-11-28T04:37:09.764Z,101942.28
2022-11-28T04:39:40.913Z,101941.22
2022-11-28T04:42:31.037Z,101957.94
2022-11-28T04:45:08.277Z,101954.31
2022-11-28T04:47:35.339Z,101951.50
2022-11-28T04:50:02.390Z,101946.09
2022-11-28T04:52:40.313Z,101945.84
2022-11-28T04:55:22.529Z,101949.66
2022-11-28T04:57:57.281Z,101955.97
2022-11-28T05:00:26.214Z,101944.34
2022-11-28T05:02:55.039Z,101953.00
2022-11-28T05:05:25.618Z,101957.16
2022-11-28T05:07:53.321Z,101969.88
2022-11-28T05:10:20.565Z,101955.41
2022-11-28T05:12:47.619Z,101954.97
2022-11-28T05:15:19.144Z,101957.75
2022-11-28T05:17:46.997Z,101974.34
2022-11-28T05:20:14.929Z,101980.97
2022-11-28T05:22:42.089Z,101973.25
2022-11-28T05:25:09.289Z,101985.66
2022-11-28T05:27:36.756Z,101990.28
2022-11-28T05:30:05.725Z,101994.84
2022-11-28T05:32:33.122Z,101973.63
2022-11-28T05:35:00.202Z,101973.88
2022-11-28T05:37:27.255Z,101987.28
2022-11-28T05:39:54.252Z,101996.91
2022-11-28T05:42:21.721Z,101998.78
2022-11-28T05:44:49.031Z,101990.03
2022-11-28T05:47:16.041Z,102010.09
2022-11-28T05:49:43.995Z,102009.59
2022-11-28T05:52:11.083Z,102018.66
2022-11-28T05:54:38.074Z,101970.34
2022-11-28T05:57:07.228Z,102020.63
2022-11-28T05:59:34.774Z,102017.16
2022-11-28T06:02:01.836Z,102014.41
2022-11-28T06:04:29.002Z,102027.75
2022-11-28T06:06:56.848Z,102018.81
2022-11-28T06:09:26.177Z,102003.78
2022-11-28T06:11:53.456Z,102030.31
2022-11-28T06:14:20.471Z,102018.56
2022-11-28T06:16:47.587Z,102022.91
2022-11-28T06:19:14.668Z,102027.06
2022-11-28T06:21:41.858Z,102017.69
2022-11-28T06:24:10.832Z,102030.13
2022-11-28T06:26:37.840Z,102029.00
2022-11-28T06:29:04.835Z,102029.88
2022-11-28T06:31:31.947Z,102026.22
2022-11-28T06:33:59.424Z,102009.50
2022-11-28T06:36:27.475Z,102012.81
2022-11-28T06:38:54.505Z,102032.19
2022-11-28T06:41:23.122Z,102033.63
2022-11-28T06:43:52.424Z,102039.03
2022-11-28T06:46:21.454Z,102029.97
2022-11-28T06:48:51.268Z,102033.03
2022-11-28T06:51:19.618Z,102015.09
2022-11-28T06:53:46.971Z,102037.97
2022-11-28T06:56:19.080Z,102019.72
2022-11-28T06:58:47.060Z,102050.06
2022-11-28T07:01:19.905Z,102034.28
2022-11-28T07:03:47.740Z,102030.50
2022-11-28T07:06:16.164Z,102016.56
2022-11-28T07:08:43.882Z,102027.00
2022-11-28T07:11:19.769Z,102044.00
2022-11-28T07:13:47.639Z,102041.44
2022-11-28T07:16:28.385Z,102036.63
2022-11-28T07:18:56.678Z,102024.03
2022-11-28T07:21:24.750Z,102043.06
2022-11-28T07:23:52.046Z,102052.47
2022-11-28T07:26:21.477Z,102052.13
2022-11-28T07:28:49.271Z,102049.56
2022-11-28T07:31:19.899Z,102040.53
2022-11-28T07:33:49.697Z,102044.81
2022-11-28T07:36:18.122Z,102048.28
2022-11-28T07:38:53.580Z,102062.13
2022-11-28T07:41:26.042Z,102047.47
2022-11-28T07:43:59.678Z,102052.16
2022-11-28T07:46:27.971Z,102049.81
2022-11-28T07:48:55.775Z,102052.16
2022-11-28T07:51:26.352Z,102051.28
2022-11-28T07:53:53.955Z,102047.47
2022-11-28T07:56:23.771Z,102055.91
2022-11-28T07:58:51.253Z,102040.34
2022-11-28T08:01:19.683Z,102069.84
2022-11-28T08:03:47.312Z,102070.94
2022-11-28T08:06:16.754Z,102061.97
2022-11-28T08:08:45.553Z,102061.50
2022-11-28T08:11:14.381Z,102053.03
2022-11-28T08:13:41.954Z,102067.00
2022-11-28T08:16:14.955Z,102066.81
2022-11-28T08:18:42.731Z,102069.47
2022-11-28T08:21:12.679Z,102076.25
2022-11-28T08:23:40.508Z,102076.44
2022-11-28T08:26:10.184Z,102080.38
2022-11-28T08:28:37.544Z,102082.44
2022-11-28T08:31:13.184Z,102077.41
2022-11-28T08:33:40.510Z,102076.72
2022-11-28T08:36:09.717Z,102083.47
2022-11-28T08:38:37.837Z,102082.97
2022-11-28T08:41:07.990Z,102079.53
2022-11-28T08:43:36.890Z,102084.53
2022-11-28T08:46:09.728Z,102074.53
2022-11-28T08:48:38.043Z,102080.81
2022-11-28T08:51:05.898Z,102086.69
2022-11-28T08:53:33.118Z,102090.09
2022-11-28T08:56:00.376Z,102078.59
2022-11-28T08:58:27.332Z,102093.56
2022-11-28T09:00:54.409Z,102093.59
2022-11-28T09:03:21.516Z,102103.84
2022-11-28T09:05:48.829Z,102105.47
2022-11-28T09:08:17.750Z,102091.28
2022-11-28T09:10:45.681Z,102088.44
2022-11-28T09:13:15.129Z,102095.75
2022-11-28T09:15:45.063Z,102089.31
2022-11-28T09:18:14.290Z,102093.88
2022-11-28T09:20:42.195Z,102085.25
2022-11-28T09:23:09.627Z,102084.94
2022-11-28T09:25:37.886Z,102077.03
2022-11-28T09:28:06.545Z,102088.56
2022-11-28T09:30:34.520Z,102094.13
2022-11-28T09:33:01.701Z,102097.38
2022-11-28T09:35:31.031Z,102087.13
2022-11-28T09:37:59.382Z,102095.34
2022-11-28T09:40:43.287Z,102095.53
2022-11-28T09:43:39.377Z,102099.34
2022-11-28T09:46:11.989Z,102100.22
2022-11-28T09:48:46.081Z,102086.25
2022-11-28T09:51:22.511Z,102097.84
2022-11-28T09:54:04.610Z,102089.28
2022-11-28T09:56:32.073Z,102081.06
2022-11-28T09:59:03.487Z,102080.78
2022-11-28T10:01:54.611Z,102087.22
2022-11-28T10:04:30.615Z,102076.84
2022-11-28T10:07:11.345Z,102083.31
2022-11-28T10:10:07.479Z,102091.22
2022-11-28T10:12:46.317Z,102091.91
2022-11-28T10:15:19.306Z,102097.66
2022-11-28T10:18:10.315Z,102088.97
2022-11-28T10:20:44.735Z,102079.16
2022-11-28T10:23:26.729Z,102086.00
2022-11-28T10:26:02.677Z,102088.78
2022-11-28T10:28:39.607Z,102087.63
2022-11-28T10:31:19.317Z,102085.28
2022-11-28T10:34:07.331Z,102080.38
2022-11-28T10:36:47.787Z,102086.31
2022-11-28T10:39:15.164Z,102092.09
2022-11-28T10:42:14.344Z,102089.16
2022-11-28T10:44:48.693Z,102073.28
2022-11-28T10:47:24.668Z,102084.53
2022-11-28T10:50:20.201Z,102089.25
2022-11-28T10:52:59.195Z,102091.38
2022-11-28T10:55:31.998Z,102092.31
2022-11-28T10:58:47.020Z,102083.53
2022-11-28T11:01:14.625Z,102073.16
2022-11-28T11:03:42.204Z,102080.75
2022-11-28T11:06:09.265Z,102077.59
2022-11-28T11:08:39.037Z,102086.31
2022-11-28T11:11:22.226Z,102082.16
2022-11-28T11:14:09.787Z,102085.38
2022-11-28T11:16:50.602Z,102084.97
2022-11-28T11:19:26.535Z,102086.72
2022-11-28T11:22:14.814Z,102091.91
2022-11-28T11:24:41.801Z,102094.63
2022-11-28T11:27:21.622Z,102103.25
2022-11-28T11:29:52.035Z,102093.22
2022-11-28T11:32:26.875Z,102101.09
2022-11-28T11:34:57.198Z,102088.06
2022-11-28T11:37:36.628Z,102093.78
2022-11-28T11:40:20.710Z,102100.53
2022-11-28T11:43:00.265Z,102078.53
2022-11-28T11:45:33.757Z,102111.13
2022-11-28T11:48:03.562Z,102112.59
2022-11-28T11:50:33.102Z,102102.22
2022-11-28T11:53:19.063Z,102110.28
2022-11-28T11:55:54.920Z,102105.84
2022-11-28T11:58:43.514Z,102115.88
2022-11-28T12:01:13.644Z,102111.88
2022-11-28T12:03:49.292Z,102103.63
2022-11-28T12:06:25.709Z,102121.13
2022-11-28T12:09:00.488Z,102122.94
2022-11-28T12:11:45.593Z,102116.06
2022-11-28T12:14:30.187Z,102121.75
2022-11-28T12:17:46.774Z,102111.94
2022-11-28T12:20:22.452Z,102119.78
2022-11-28T12:22:52.201Z,102118.47
2022-11-28T12:25:44.643Z,102118.22
2022-11-28T12:28:51.654Z,102129.94
2022-11-28T12:31:30.749Z,102123.88
2022-11-28T12:34:06.893Z,102118.84
2022-11-28T12:36:56.816Z,102117.88
2022-11-28T12:39:26.721Z,102134.25
2022-11-28T12:42:03.224Z,102133.00
2022-11-28T12:45:14.669Z,102119.53
2022-11-28T12:47:55.106Z,102138.66
2022-11-28T12:50:42.930Z,102117.91
2022-11-28T12:53:28.013Z,102139.06
2022-11-28T12:56:25.309Z,102144.31
2022-11-28T12:59:02.194Z,102148.00
2022-11-28T13:01:56.838Z,102143.03
2022-11-28T13:04:54.401Z,102150.03
2022-11-28T13:07:27.349Z,102149.50
2022-11-28T13:10:45.465Z,102148.66
2022-11-28T13:13:20.400Z,102149.94
2022-11-28T13:15:56.330Z,102148.56
2022-11-28T13:18:45.794Z,102153.03
2022-11-28T13:21:24.841Z,102158.78
2022-11-28T13:24:02.253Z,102154.09
2022-11-28T13:26:58.854Z,102156.88
2022-11-28T13:29:41.128Z,102153.59
2022-11-28T13:32:13.416Z,102160.69
2022-11-28T13:34:40.874Z,102145.47
2022-11-28T13:40:30.295Z,102161.78
2022-11-28T13:43:34.547Z,102151.50
2022-11-28T13:46:02.466Z,102158.38
2022-11-28T13:48:57.929Z,102159.47
2022-11-28T13:51:31.078Z,102154.44
2022-11-28T13:54:17.601Z,102156.22
2022-11-28T13:56:47.887Z,102157.91
2022-11-28T13:59:25.285Z,102154.72
2022-11-28T14:01:59.345Z,102163.88
2022-11-28T14:04:28.078Z,102161.00
2022-11-28T14:07:07.519Z,102170.78
2022-11-28T14:10:18.251Z,102179.22
2022-11-28T14:13:01.969Z,102166.06
2022-11-28T14:16:08.091Z,102180.53
2022-11-28T14:18:56.832Z,102180.66
2022-11-28T14:21:30.438Z,102182.81
2022-11-28T14:24:26.956Z,102175.06
2022-11-28T14:27:01.186Z,102180.63
2022-11-28T14:29:40.098Z,102190.50
2022-11-28T14:32:30.643Z,102187.97
2022-11-28T14:34:59.895Z,102194.00
2022-11-28T14:37:28.659Z,102193.41
2022-11-28T14:39:58.064Z,102188.00
2022-11-28T14:42:59.079Z,102190.91
2022-11-28T14:45:41.064Z,102191.63
2022-11-28T14:48:22.034Z,102194.22
2022-11-28T14:50:59.037Z,102187.47
2022-11-28T14:53:44.860Z,102189.19
2022-11-28T14:56:15.033Z,102180.66
2022-11-28T14:58:55.324Z,102184.69
2022-11-28T15:01:58.509Z,102191.47
2022-11-28T15:04:50.710Z,102188.03
2022-11-28T15:07:35.563Z,102185.94
2022-11-28T15:10:30.387Z,102190.44
2022-11-28T15:13:28.747Z,102191.56
2022-11-28T15:15:56.030Z,102186.13
2022-11-28T15:18:25.962Z,102183.56
2022-11-28T15:20:58.829Z,102190.47
2022-11-28T15:23:30.429Z,102186.44
2022-11-28T15:25:59.685Z,102180.75
2022-11-28T15:28:28.988Z,102173.84
2022-11-28T15:30:59.409Z,102163.06
2022-11-28T15:33:30.202Z,102177.19
2022-11-28T15:36:02.877Z,102176.69
2022-11-28T15:38:31.808Z,102182.94
2022-11-28T15:41:00.992Z,102188.97
2022-11-28T15:43:30.936Z,102197.69
2022-11-28T15:46:02.569Z,102198.94
2022-11-28T15:48:40.209Z,102197.25
2022-11-28T15:51:08.812Z,102195.13
2022-11-28T15:53:42.494Z,102189.59
2022-11-28T15:56:12.382Z,102202.19
2022-11-28T15:58:42.762Z,102190.03
2022-11-28T16:01:36.226Z,102203.72
2022-11-28T16:04:16.990Z,102193.41
2022-11-28T16:06:50.520Z,102187.69
2022-11-28T16:09:17.461Z,102201.34
2022-11-28T16:11:48.301Z,102191.66
2022-11-28T16:14:22.502Z,102194.41
2022-11-28T16:16:50.584Z,102204.13
2022-11-28T16:19:25.104Z,102188.13
2022-11-28T16:21:58.198Z,102192.94
2022-11-28T16:24:38.591Z,102196.72
2022-11-28T16:27:06.896Z,102203.72
2022-11-28T16:29:36.548Z,102198.88
2022-11-28T16:32:26.374Z,102185.47
2022-11-28T16:34:55.541Z,102193.41
2022-11-28T16:37:26.981Z,102185.19
2022-11-28T16:40:12.997Z,102202.19
2022-11-28T16:42:40.694Z,102191.31
2022-11-28T16:45:17.552Z,102189.59
2022-11-28T16:47:45.872Z,102188.75
2022-11-28T16:50:25.036Z,102191.41
2022-11-28T16:52:57.825Z,102176.22
2022-11-28T16:55:33.959Z,102204.78
2022-11-28T16:58:09.147Z,102198.13
2022-11-28T17:00:39.203Z,102193.16
2022-11-28T17:03:11.649Z,102204.38
2022-11-28T17:05:39.996Z,102207.94
2022-11-28T17:08:08.346Z,102189.38
2022-11-28T17:10:35.857Z,102199.06
2022-11-28T17:13:02.996Z,102213.31
2022-11-28T17:15:30.976Z,102205.22
2022-11-28T17:17:59.412Z,102210.03
2022-11-28T17:20:26.812Z,102210.22
2022-11-28T17:22:56.498Z,102222.59
2022-11-28T17:25:23.564Z,102213.09
2022-11-28T17:27:50.548Z,102216.47
2022-11-28T17:30:19.809Z,102210.47
2022-11-28T17:32:48.099Z,102217.16
2022-11-28T17:35:21.687Z,102226.75
2022-11-28T17:37:49.296Z,102214.09
2022-11-28T17:40:37.738Z,102201.59
2022-11-28T17:43:05.156Z,102199.06
2022-11-28T17:45:35.408Z,102214.59
2022-11-28T17:48:02.633Z,102221.47
2022-11-28T17:50:30.598Z,102226.53
2022-11-28T17:52:57.865Z,102235.47
2022-11-28T17:55:25.553Z,102218.47
2022-11-28T17:57:53.817Z,102223.78
2022-11-28T18:00:21.199Z,102226.09
2022-11-28T18:02:48.435Z,102224.59
2022-11-28T18:05:15.871Z,102228.63
2022-11-28T18:07:43.037Z,102224.78
2022-11-28T18:10:12.662Z,102220.59
2022-11-28T18:12:40.615Z,102222.94
2022-11-28T18:15:11.321Z,102223.59
2022-11-28T18:17:38.775Z,102216.16
2022-11-28T18:20:07.118Z,102217.94
2022-11-28T18:22:34.474Z,102221.16
2022-11-28T18:25:01.794Z,102222.75
2022-11-28T18:27:32.051Z,102221.97
2022-11-28T18:30:00.802Z,102215.84
2022-11-28T18:32:29.527Z,102222.50
2022-11-28T18:34:57.794Z,102210.53
2022-11-28T18:37:27.611Z,102219.19
2022-11-28T18:39:54.667Z,102217.13
2022-11-28T18:42:22.970Z,102221.28
2022-11-28T18:44:50.284Z,102213.59
2022-11-28T18:47:17.565Z,102221.78
2022-11-28T18:49:48.065Z,102215.06
2022-11-28T18:52:18.363Z,102205.09
2022-11-28T18:54:46.247Z,102209.06
2022-11-28T18:57:13.590Z,102227.66
2022-11-28T18:59:40.994Z,102225.13
2022-11-28T19:02:11.304Z,102239.63
2022-11-28T19:04:38.771Z,102233.97
2022-11-28T19:07:05.983Z,102237.84
2022-11-28T19:09:33.099Z,102236.94
2022-11-28T19:12:00.371Z,102232.59
2022-11-28T19:14:28.007Z,102242.13
2022-11-28T19:16:56.839Z,102241.66
2022-11-28T19:19:24.303Z,102236.13
2022-11-28T19:21:51.564Z,102223.59
2022-11-28T19:24:18.746Z,102227.25
2022-11-28T19:26:48.378Z,102228.59
2022-11-28T19:29:15.604Z,102233.66
2022-11-28T19:31:43.482Z,102228.63
2022-11-28T19:34:16.059Z,102228.50
2022-11-28T19:36:47.822Z,102221.88
2022-11-28T19:39:20.488Z,102223.94
2022-11-28T19:41:49.976Z,102232.81
2022-11-28T19:44:20.095Z,102232.56
2022-11-28T19:46:49.329Z,102232.78
2022-11-28T19:49:21.801Z,102233.28
2022-11-28T19:51:50.369Z,102231.47
2022-11-28T19:54:19.850Z,102234.13
2022-11-28T19:56:48.714Z,102235.63
2022-11-28T19:59:17.612Z,102232.56
2022-11-28T20:01:49.046Z,102238.56
2022-11-28T20:04:17.886Z,102237.38
2022-11-28T20:06:45.002Z,102240.53
2022-11-28T20:09:13.854Z,102238.56
2022-11-28T20:11:43.735Z,102239.91
2022-11-28T20:14:14.772Z,102241.34
2022-11-28T20:16:42.172Z,102242.88
2022-11-28T20:19:12.213Z,102249.19
2022-11-28T20:21:39.326Z,102241.34
2022-11-28T20:24:08.347Z,102250.94
2022-11-28T20:26:41.607Z,102245.50
2022-11-28T20:29:12.360Z,102256.72
2022-11-28T20:31:46.354Z,102258.00
2022-11-28T20:34:17.357Z,102263.75
2022-11-28T20:36:45.819Z,102252.09
2022-11-28T20:39:13.400Z,102240.59
2022-11-28T20:41:40.529Z,102235.66
2022-11-28T20:44:07.891Z,102268.72
2022-11-28T20:46:35.779Z,102265.53
2022-11-28T20:49:05.939Z,102265.00
2022-11-28T20:51:34.564Z,102264.97
2022-11-28T20:54:02.829Z,102262.31
2022-11-28T20:56:31.872Z,102268.06
2022-11-28T20:59:00.933Z,102276.59
2022-11-28T21:01:33.196Z,102271.72
2022-11-28T21:04:02.182Z,102271.81
2022-11-28T21:06:29.258Z,102254.22
2022-11-28T21:08:57.411Z,102266.63
2022-11-28T21:11:55.048Z,102273.56
2022-11-28T21:14:15.247Z,102274.81
2022-11-28T21:16:43.824Z,102275.28
2022-11-28T21:19:11.488Z,102286.94
2022-11-28T21:21:40.283Z,102276.00
2022-11-28T21:24:10.842Z,102277.97
2022-11-28T21:26:42.413Z,102280.06
2022-11-28T21:29:12.262Z,102273.88
2022-11-28T21:31:44.117Z,102277.03
2022-11-28T21:34:16.878Z,102277.63
2022-11-28T21:36:44.601Z,102277.25
2022-11-28T21:39:17.519Z,102263.69
2022-11-28T21:41:44.805Z,102284.91
2022-11-28T21:44:13.860Z,102278.34
2022-11-28T21:46:40.893Z,102282.91
2022-11-28T21:49:07.981Z,102290.13
2022-11-28T21:51:39.431Z,102272.47
2022-11-28T21:54:06.510Z,102289.22
2022-11-28T21:56:34.087Z,102282.81
2022-11-28T21:59:01.465Z,102286.75
2022-11-28T22:01:29.128Z,102284.88
2022-11-28T22:04:02.082Z,102283.72
2022-11-28T22:06:31.006Z,102273.34
2022-11-28T22:08:58.445Z,102262.13
2022-11-28T22:11:25.602Z,102274.84
2022-11-28T22:13:52.971Z,102277.22
2022-11-28T22:16:23.459Z,102291.03
2022-11-28T22:18:54.119Z,102282.56
2022-11-28T22:24:08.703Z,102298.03
2022-11-28T22:26:36.130Z,102283.00
2022-11-28T22:29:04.356Z,102294.81
2022-11-28T22:31:32.989Z,102289.97
2022-11-28T22:34:00.358Z,102296.03
2022-11-28T22:36:28.378Z,102265.16
2022-11-28T22:38:57.846Z,102292.94
2022-11-28T22:41:29.268Z,102266.41
2022-11-28T22:44:00.988Z,102294.19
2022-11-28T22:46:30.019Z,102291.22
2022-11-28T22:49:01.812Z,102280.00
2022-11-28T22:51:30.358Z,102293.03
2022-11-28T22:54:00.368Z,102281.31
2022-11-28T22:56:30.308Z,102282.91
2022-11-28T22:58:59.153Z,102286.69
2022-11-28T23:01:31.159Z,102289.88
2022-11-28T23:03:59.652Z,102287.47
2022-11-28T23:06:29.799Z,102280.66
2022-11-28T23:08:58.970Z,102296.19
2022-11-28T23:11:28.937Z,102298.78
2022-11-28T23:13:56.810Z,102300.34
2022-11-28T23:16:39.066Z,102292.38
2022-11-28T23:19:11.012Z,102308.00
2022-11-28T23:21:40.369Z,102294.78
2022-11-28T23:24:12.417Z,102287.81
2022-11-28T23:26:39.466Z,102288.56
2022-11-28T23:29:06.650Z,102294.47
2022-11-28T23:31:37.656Z,102290.16
2022-11-28T23:34:05.695Z,102290.91
2022-11-28T23:36:42.645Z,102296.00
2022-11-28T23:39:14.321Z,102297.75
2022-11-28T23:41:42.506Z,102293.34
2022-11-28T23:44:13.753Z,102299.72
2022-11-28T23:46:41.753Z,102284.88
2022-11-28T23:49:09.607Z,102297.09
2022-11-28T23:51:37.128Z,102298.78
2022-11-28T23:54:04.425Z,102297.66
2022-11-28T23:56:34.777Z,102294.47
2022-11-28T23:59:04.662Z,102296.59
